sensor_id;sensor_type;location;lat;lon;timestamp;temperature;humidity
16980;DHT22;42288;52.182;21.156;2022-09-27T00:01:07;13.60;96.90
16980;DHT22;42288;52.182;21.156;2022-09-27T00:03:33;13.40;97.10
16980;DHT22;42288;52.182;21.156;2022-09-27T00:06:13;13.50;97.30
16980;DHT22;42288;52.182;21.156;2022-09-27T00:08:39;13.30;97.80
16980;DHT22;42288;52.182;21.156;2022-09-27T00:11:08;13.30;98.30
16980;DHT22;42288;52.182;21.156;2022-09-27T00:13:35;13.30;98.40
16980;DHT22;42288;52.182;21.156;2022-09-27T00:16:02;13.20;98.70
16980;DHT22;42288;52.182;21.156;2022-09-27T00:18:32;13.30;98.90
16980;DHT22;42288;52.182;21.156;2022-09-27T00:21:05;13.20;98.80
16980;DHT22;42288;52.182;21.156;2022-09-27T00:23:31;13.20;98.80
16980;DHT22;42288;52.182;21.156;2022-09-27T00:25:58;13.30;98.80
16980;DHT22;42288;52.182;21.156;2022-09-27T00:28:24;13.20;98.90
16980;DHT22;42288;52.182;21.156;2022-09-27T00:30:51;13.20;98.90
16980;DHT22;42288;52.182;21.156;2022-09-27T00:33:16;13.20;99.20
16980;DHT22;42288;52.182;21.156;2022-09-27T00:35:42;13.20;99.40
16980;DHT22;42288;52.182;21.156;2022-09-27T00:38:08;13.30;99.60
16980;DHT22;42288;52.182;21.156;2022-09-27T00:40:34;13.40;99.50
16980;DHT22;42288;52.182;21.156;2022-09-27T00:42:59;13.60;99.20
16980;DHT22;42288;52.182;21.156;2022-09-27T00:45:25;13.60;98.90
16980;DHT22;42288;52.182;21.156;2022-09-27T00:47:57;13.80;98.50
16980;DHT22;42288;52.182;21.156;2022-09-27T00:50:28;13.90;98.20
16980;DHT22;42288;52.182;21.156;2022-09-27T00:53:14;13.90;98.00
16980;DHT22;42288;52.182;21.156;2022-09-27T00:55:48;13.90;97.70
16980;DHT22;42288;52.182;21.156;2022-09-27T00:58:17;14.10;97.70
16980;DHT22;42288;52.182;21.156;2022-09-27T01:00:48;14.00;97.60
16980;DHT22;42288;52.182;21.156;2022-09-27T01:03:23;13.90;97.80
16980;DHT22;42288;52.182;21.156;2022-09-27T01:05:51;13.90;97.90
16980;DHT22;42288;52.182;21.156;2022-09-27T01:08:17;13.70;98.40
16980;DHT22;42288;52.182;21.156;2022-09-27T01:10:58;13.70;98.60
16980;DHT22;42288;52.182;21.156;2022-09-27T01:13:39;13.70;98.80
16980;DHT22;42288;52.182;21.156;2022-09-27T01:16:34;13.70;98.90
16980;DHT22;42288;52.182;21.156;2022-09-27T01:19:10;13.60;99.10
16980;DHT22;42288;52.182;21.156;2022-09-27T01:21:48;13.70;99.20
16980;DHT22;42288;52.182;21.156;2022-09-27T01:27:48;13.80;98.80
16980;DHT22;42288;52.182;21.156;2022-09-27T01:30:41;13.70;98.70
16980;DHT22;42288;52.182;21.156;2022-09-27T01:33:32;13.70;98.90
16980;DHT22;42288;52.182;21.156;2022-09-27T01:36:22;13.70;99.10
16980;DHT22;42288;52.182;21.156;2022-09-27T01:39:10;13.40;99.60
16980;DHT22;42288;52.182;21.156;2022-09-27T01:42:07;13.50;99.90
16980;DHT22;42288;52.182;21.156;2022-09-27T01:44:46;13.70;99.90
16980;DHT22;42288;52.182;21.156;2022-09-27T01:47:22;13.90;99.80
16980;DHT22;42288;52.182;21.156;2022-09-27T01:49:59;13.90;99.70
16980;DHT22;42288;52.182;21.156;2022-09-27T01:52:38;13.90;99.90
16980;DHT22;42288;52.182;21.156;2022-09-27T01:55:07;13.90;99.80
16980;DHT22;42288;52.182;21.156;2022-09-27T01:57:41;13.90;99.90
16980;DHT22;42288;52.182;21.156;2022-09-27T02:00:10;14.00;99.80
16980;DHT22;42288;52.182;21.156;2022-09-27T02:02:43;14.00;99.90
16980;DHT22;42288;52.182;21.156;2022-09-27T02:05:11;13.90;99.90
16980;DHT22;42288;52.182;21.156;2022-09-27T02:07:52;13.60;99.90
16980;DHT22;42288;52.182;21.156;2022-09-27T02:10:23;13.60;99.90
16980;DHT22;42288;52.182;21.156;2022-09-27T02:13:22;13.40;99.90
16980;DHT22;42288;52.182;21.156;2022-09-27T02:16:01;13.40;99.90
16980;DHT22;42288;52.182;21.156;2022-09-27T02:18:48;13.40;99.90
16980;DHT22;42288;52.182;21.156;2022-09-27T02:21:16;13.40;99.90
16980;DHT22;42288;52.182;21.156;2022-09-27T02:23:46;13.40;99.90
16980;DHT22;42288;52.182;21.156;2022-09-27T02:26:23;13.60;99.90
16980;DHT22;42288;52.182;21.156;2022-09-27T02:29:09;13.80;99.90
16980;DHT22;42288;52.182;21.156;2022-09-27T02:31:35;13.70;99.90
16980;DHT22;42288;52.182;21.156;2022-09-27T02:34:15;13.60;99.90
16980;DHT22;42288;52.182;21.156;2022-09-27T02:36:42;13.60;99.90
16980;DHT22;42288;52.182;21.156;2022-09-27T02:39:08;13.60;99.90
16980;DHT22;42288;52.182;21.156;2022-09-27T02:41:33;13.40;99.90
16980;DHT22;42288;52.182;21.156;2022-09-27T02:44:02;13.50;99.90
16980;DHT22;42288;52.182;21.156;2022-09-27T02:52:13;13.40;99.90
16980;DHT22;42288;52.182;21.156;2022-09-27T02:54:58;13.60;99.90
16980;DHT22;42288;52.182;21.156;2022-09-27T03:00:16;13.60;99.90
16980;DHT22;42288;52.182;21.156;2022-09-27T03:03:03;13.60;99.90
16980;DHT22;42288;52.182;21.156;2022-09-27T03:05:43;13.60;99.90
16980;DHT22;42288;52.182;21.156;2022-09-27T03:08:11;13.70;99.90
16980;DHT22;42288;52.182;21.156;2022-09-27T03:10:36;13.70;99.90
16980;DHT22;42288;52.182;21.156;2022-09-27T03:13:02;13.70;99.90
16980;DHT22;42288;52.182;21.156;2022-09-27T03:15:29;13.80;99.90
16980;DHT22;42288;52.182;21.156;2022-09-27T03:17:55;13.80;99.90
16980;DHT22;42288;52.182;21.156;2022-09-27T03:20:20;13.80;99.90
16980;DHT22;42288;52.182;21.156;2022-09-27T03:22:46;13.70;99.90
16980;DHT22;42288;52.182;21.156;2022-09-27T03:25:11;13.80;99.90
16980;DHT22;42288;52.182;21.156;2022-09-27T03:27:37;13.80;99.90
16980;DHT22;42288;52.182;21.156;2022-09-27T03:30:03;13.70;99.90
16980;DHT22;42288;52.182;21.156;2022-09-27T03:32:28;13.70;99.90
16980;DHT22;42288;52.182;21.156;2022-09-27T03:34:55;13.80;99.90
16980;DHT22;42288;52.182;21.156;2022-09-27T03:37:22;13.70;99.90
16980;DHT22;42288;52.182;21.156;2022-09-27T03:39:47;13.60;99.90
16980;DHT22;42288;52.182;21.156;2022-09-27T03:42:13;13.60;99.90
16980;DHT22;42288;52.182;21.156;2022-09-27T03:44:38;13.60;99.90
16980;DHT22;42288;52.182;21.156;2022-09-27T03:47:04;13.70;99.90
16980;DHT22;42288;52.182;21.156;2022-09-27T03:49:30;13.90;99.90
16980;DHT22;42288;52.182;21.156;2022-09-27T03:51:57;13.70;99.90
16980;DHT22;42288;52.182;21.156;2022-09-27T03:54:22;13.80;99.90
16980;DHT22;42288;52.182;21.156;2022-09-27T03:56:48;13.90;99.90
16980;DHT22;42288;52.182;21.156;2022-09-27T03:59:14;14.00;99.90
16980;DHT22;42288;52.182;21.156;2022-09-27T04:01:39;14.10;99.90
16980;DHT22;42288;52.182;21.156;2022-09-27T04:04:06;14.10;99.90
16980;DHT22;42288;52.182;21.156;2022-09-27T04:06:32;14.00;99.90
16980;DHT22;42288;52.182;21.156;2022-09-27T04:08:59;14.10;99.90
16980;DHT22;42288;52.182;21.156;2022-09-27T04:11:24;13.90;99.90
16980;DHT22;42288;52.182;21.156;2022-09-27T04:13:50;13.80;99.90
16980;DHT22;42288;52.182;21.156;2022-09-27T04:16:15;13.80;99.90
16980;DHT22;42288;52.182;21.156;2022-09-27T04:18:41;13.60;99.90
16980;DHT22;42288;52.182;21.156;2022-09-27T04:21:07;13.70;99.90
16980;DHT22;42288;52.182;21.156;2022-09-27T04:23:34;13.90;99.90
16980;DHT22;42288;52.182;21.156;2022-09-27T04:25:59;13.60;99.90
16980;DHT22;42288;52.182;21.156;2022-09-27T04:28:25;13.70;99.90
16980;DHT22;42288;52.182;21.156;2022-09-27T04:30:51;13.60;99.90
16980;DHT22;42288;52.182;21.156;2022-09-27T04:33:18;13.70;99.90
16980;DHT22;42288;52.182;21.156;2022-09-27T04:35:43;13.80;99.90
16980;DHT22;42288;52.182;21.156;2022-09-27T04:38:27;13.60;99.90
16980;DHT22;42288;52.182;21.156;2022-09-27T04:40:53;13.50;99.90
16980;DHT22;42288;52.182;21.156;2022-09-27T04:43:18;13.60;99.90
16980;DHT22;42288;52.182;21.156;2022-09-27T04:45:44;13.70;99.90
16980;DHT22;42288;52.182;21.156;2022-09-27T04:48:10;13.80;99.90
16980;DHT22;42288;52.182;21.156;2022-09-27T04:50:35;13.90;99.90
16980;DHT22;42288;52.182;21.156;2022-09-27T04:53:01;13.60;99.90
16980;DHT22;42288;52.182;21.156;2022-09-27T04:55:26;13.30;99.90
16980;DHT22;42288;52.182;21.156;2022-09-27T04:57:52;13.40;99.90
16980;DHT22;42288;52.182;21.156;2022-09-27T05:00:18;13.70;99.90
16980;DHT22;42288;52.182;21.156;2022-09-27T05:02:45;13.00;99.90
16980;DHT22;42288;52.182;21.156;2022-09-27T05:05:12;13.20;99.90
16980;DHT22;42288;52.182;21.156;2022-09-27T05:07:38;13.00;99.90
16980;DHT22;42288;52.182;21.156;2022-09-27T05:10:05;13.10;99.90
16980;DHT22;42288;52.182;21.156;2022-09-27T05:12:30;13.40;99.90
16980;DHT22;42288;52.182;21.156;2022-09-27T05:14:56;13.60;99.90
16980;DHT22;42288;52.182;21.156;2022-09-27T05:17:21;13.50;99.90
16980;DHT22;42288;52.182;21.156;2022-09-27T05:19:48;13.20;99.90
16980;DHT22;42288;52.182;21.156;2022-09-27T05:22:14;13.30;99.90
16980;DHT22;42288;52.182;21.156;2022-09-27T05:24:40;13.40;99.90
16980;DHT22;42288;52.182;21.156;2022-09-27T05:27:07;13.60;99.90
16980;DHT22;42288;52.182;21.156;2022-09-27T05:29:34;13.50;99.90
16980;DHT22;42288;52.182;21.156;2022-09-27T05:32:00;13.40;99.90
16980;DHT22;42288;52.182;21.156;2022-09-27T05:34:26;13.40;99.90
16980;DHT22;42288;52.182;21.156;2022-09-27T05:36:51;13.40;99.90
16980;DHT22;42288;52.182;21.156;2022-09-27T05:39:17;13.10;99.90
16980;DHT22;42288;52.182;21.156;2022-09-27T05:41:44;12.90;99.90
16980;DHT22;42288;52.182;21.156;2022-09-27T05:44:10;12.90;99.90
16980;DHT22;42288;52.182;21.156;2022-09-27T05:46:37;12.80;99.90
16980;DHT22;42288;52.182;21.156;2022-09-27T05:49:03;13.00;99.90
16980;DHT22;42288;52.182;21.156;2022-09-27T05:51:29;12.90;99.90
16980;DHT22;42288;52.182;21.156;2022-09-27T05:53:54;13.10;99.90
16980;DHT22;42288;52.182;21.156;2022-09-27T05:56:20;13.10;99.90
16980;DHT22;42288;52.182;21.156;2022-09-27T05:58:45;13.20;99.90
16980;DHT22;42288;52.182;21.156;2022-09-27T06:01:11;13.20;99.90
16980;DHT22;42288;52.182;21.156;2022-09-27T06:03:37;13.20;99.90
16980;DHT22;42288;52.182;21.156;2022-09-27T06:06:05;13.30;99.90
16980;DHT22;42288;52.182;21.156;2022-09-27T06:08:34;13.30;99.90
16980;DHT22;42288;52.182;21.156;2022-09-27T06:11:02;13.10;99.90
16980;DHT22;42288;52.182;21.156;2022-09-27T06:13:29;13.30;99.90
16980;DHT22;42288;52.182;21.156;2022-09-27T06:15:54;13.50;99.90
16980;DHT22;42288;52.182;21.156;2022-09-27T06:18:20;13.60;99.90
16980;DHT22;42288;52.182;21.156;2022-09-27T06:20:45;13.60;99.90
16980;DHT22;42288;52.182;21.156;2022-09-27T06:23:19;13.70;99.90
16980;DHT22;42288;52.182;21.156;2022-09-27T06:25:46;13.50;99.90
16980;DHT22;42288;52.182;21.156;2022-09-27T06:28:12;13.70;99.90
16980;DHT22;42288;52.182;21.156;2022-09-27T06:30:43;13.70;99.90
16980;DHT22;42288;52.182;21.156;2022-09-27T06:33:14;13.60;99.90
16980;DHT22;42288;52.182;21.156;2022-09-27T06:35:41;13.80;99.90
16980;DHT22;42288;52.182;21.156;2022-09-27T06:38:09;13.80;99.90
16980;DHT22;42288;52.182;21.156;2022-09-27T06:40:36;14.10;99.90
16980;DHT22;42288;52.182;21.156;2022-09-27T06:43:02;13.80;99.90
16980;DHT22;42288;52.182;21.156;2022-09-27T06:45:28;13.30;99.90
16980;DHT22;42288;52.182;21.156;2022-09-27T06:47:56;13.30;99.90
16980;DHT22;42288;52.182;21.156;2022-09-27T06:50:21;13.40;99.90
16980;DHT22;42288;52.182;21.156;2022-09-27T06:52:48;13.60;99.90
16980;DHT22;42288;52.182;21.156;2022-09-27T06:55:14;13.70;99.90
16980;DHT22;42288;52.182;21.156;2022-09-27T06:57:39;13.40;99.90
16980;DHT22;42288;52.182;21.156;2022-09-27T07:00:23;13.30;99.90
16980;DHT22;42288;52.182;21.156;2022-09-27T07:02:54;13.60;99.90
16980;DHT22;42288;52.182;21.156;2022-09-27T07:05:26;13.70;99.90
16980;DHT22;42288;52.182;21.156;2022-09-27T07:07:54;13.70;99.90
16980;DHT22;42288;52.182;21.156;2022-09-27T07:10:23;13.60;99.90
16980;DHT22;42288;52.182;21.156;2022-09-27T07:12:48;13.80;99.90
16980;DHT22;42288;52.182;21.156;2022-09-27T07:15:14;13.90;99.90
16980;DHT22;42288;52.182;21.156;2022-09-27T07:17:40;13.90;99.90
16980;DHT22;42288;52.182;21.156;2022-09-27T07:20:06;14.10;99.90
16980;DHT22;42288;52.182;21.156;2022-09-27T07:22:31;14.00;99.90
16980;DHT22;42288;52.182;21.156;2022-09-27T07:24:57;14.10;99.90
16980;DHT22;42288;52.182;21.156;2022-09-27T07:27:22;13.90;99.90
16980;DHT22;42288;52.182;21.156;2022-09-27T07:29:49;13.80;99.90
16980;DHT22;42288;52.182;21.156;2022-09-27T07:32:15;13.60;99.90
16980;DHT22;42288;52.182;21.156;2022-09-27T07:34:40;13.80;99.90
16980;DHT22;42288;52.182;21.156;2022-09-27T07:37:06;13.90;99.90
16980;DHT22;42288;52.182;21.156;2022-09-27T07:39:31;14.00;99.90
16980;DHT22;42288;52.182;21.156;2022-09-27T07:41:57;14.00;99.90
16980;DHT22;42288;52.182;21.156;2022-09-27T07:44:23;14.10;99.90
16980;DHT22;42288;52.182;21.156;2022-09-27T07:46:48;13.90;99.90
16980;DHT22;42288;52.182;21.156;2022-09-27T07:49:14;13.70;99.90
16980;DHT22;42288;52.182;21.156;2022-09-27T07:51:39;13.90;99.90
16980;DHT22;42288;52.182;21.156;2022-09-27T07:54:05;14.20;99.90
16980;DHT22;42288;52.182;21.156;2022-09-27T07:56:30;14.00;99.90
16980;DHT22;42288;52.182;21.156;2022-09-27T07:58:56;13.70;99.90
16980;DHT22;42288;52.182;21.156;2022-09-27T08:01:22;13.70;99.90
16980;DHT22;42288;52.182;21.156;2022-09-27T08:03:48;13.70;99.90
16980;DHT22;42288;52.182;21.156;2022-09-27T08:06:13;13.90;99.90
16980;DHT22;42288;52.182;21.156;2022-09-27T08:08:39;14.10;99.90
16980;DHT22;42288;52.182;21.156;2022-09-27T08:11:13;13.90;99.90
16980;DHT22;42288;52.182;21.156;2022-09-27T08:13:41;14.00;99.90
16980;DHT22;42288;52.182;21.156;2022-09-27T08:16:06;14.00;99.90
16980;DHT22;42288;52.182;21.156;2022-09-27T08:18:32;14.00;99.90
16980;DHT22;42288;52.182;21.156;2022-09-27T08:20:58;14.10;99.90
16980;DHT22;42288;52.182;21.156;2022-09-27T08:23:24;14.20;99.90
16980;DHT22;42288;52.182;21.156;2022-09-27T08:25:53;14.00;99.90
16980;DHT22;42288;52.182;21.156;2022-09-27T08:28:19;14.00;99.90
16980;DHT22;42288;52.182;21.156;2022-09-27T08:30:47;14.20;99.90
16980;DHT22;42288;52.182;21.156;2022-09-27T08:33:13;14.30;99.90
16980;DHT22;42288;52.182;21.156;2022-09-27T08:35:38;14.50;99.90
16980;DHT22;42288;52.182;21.156;2022-09-27T08:38:04;14.50;99.90
16980;DHT22;42288;52.182;21.156;2022-09-27T08:43:19;14.20;99.90
16980;DHT22;42288;52.182;21.156;2022-09-27T08:45:59;14.30;99.90
16980;DHT22;42288;52.182;21.156;2022-09-27T08:48:28;13.90;99.90
16980;DHT22;42288;52.182;21.156;2022-09-27T08:50:54;13.90;99.90
16980;DHT22;42288;52.182;21.156;2022-09-27T08:53:26;13.90;99.90
16980;DHT22;42288;52.182;21.156;2022-09-27T08:55:54;14.00;99.90
16980;DHT22;42288;52.182;21.156;2022-09-27T08:58:33;13.90;99.90
16980;DHT22;42288;52.182;21.156;2022-09-27T09:01:05;14.00;99.90
16980;DHT22;42288;52.182;21.156;2022-09-27T09:03:35;14.30;99.90
16980;DHT22;42288;52.182;21.156;2022-09-27T09:06:21;14.40;99.90
16980;DHT22;42288;52.182;21.156;2022-09-27T09:11:55;14.80;99.90
16980;DHT22;42288;52.182;21.156;2022-09-27T09:15:12;15.20;99.90
16980;DHT22;42288;52.182;21.156;2022-09-27T09:17:51;15.30;99.90
16980;DHT22;42288;52.182;21.156;2022-09-27T09:23:28;14.80;99.90
16980;DHT22;42288;52.182;21.156;2022-09-27T09:26:28;15.10;99.90
16980;DHT22;42288;52.182;21.156;2022-09-27T09:29:09;15.00;99.90
16980;DHT22;42288;52.182;21.156;2022-09-27T09:34:22;15.30;99.90
16980;DHT22;42288;52.182;21.156;2022-09-27T09:36:56;15.30;99.90
16980;DHT22;42288;52.182;21.156;2022-09-27T09:39:34;14.90;99.90
16980;DHT22;42288;52.182;21.156;2022-09-27T09:42:11;15.10;99.90
16980;DHT22;42288;52.182;21.156;2022-09-27T09:47:53;15.10;99.90
16980;DHT22;42288;52.182;21.156;2022-09-27T09:50:26;14.80;99.90
16980;DHT22;42288;52.182;21.156;2022-09-27T09:53:09;14.80;99.90
16980;DHT22;42288;52.182;21.156;2022-09-27T09:55:37;14.70;99.90
16980;DHT22;42288;52.182;21.156;2022-09-27T10:00:42;15.20;99.90
16980;DHT22;42288;52.182;21.156;2022-09-27T10:03:08;15.30;99.30
16980;DHT22;42288;52.182;21.156;2022-09-27T10:05:33;15.40;98.90
16980;DHT22;42288;52.182;21.156;2022-09-27T10:08:06;15.20;99.10
16980;DHT22;42288;52.182;21.156;2022-09-27T10:10:32;15.30;98.90
16980;DHT22;42288;52.182;21.156;2022-09-27T10:13:01;15.30;98.60
16980;DHT22;42288;52.182;21.156;2022-09-27T10:15:29;15.50;99.00
16980;DHT22;42288;52.182;21.156;2022-09-27T10:17:58;15.70;98.30
16980;DHT22;42288;52.182;21.156;2022-09-27T10:20:46;15.30;97.60
16980;DHT22;42288;52.182;21.156;2022-09-27T10:23:20;15.10;98.00
16980;DHT22;42288;52.182;21.156;2022-09-27T10:25:46;15.00;98.70
16980;DHT22;42288;52.182;21.156;2022-09-27T10:31:04;15.20;99.00
16980;DHT22;42288;52.182;21.156;2022-09-27T10:33:31;15.30;98.90
16980;DHT22;42288;52.182;21.156;2022-09-27T10:35:58;15.30;98.80
16980;DHT22;42288;52.182;21.156;2022-09-27T10:38:30;15.20;98.90
16980;DHT22;42288;52.182;21.156;2022-09-27T10:40:58;15.10;98.70
16980;DHT22;42288;52.182;21.156;2022-09-27T10:43:39;15.10;99.10
16980;DHT22;42288;52.182;21.156;2022-09-27T10:46:10;15.30;98.70
16980;DHT22;42288;52.182;21.156;2022-09-27T10:48:37;15.50;98.40
16980;DHT22;42288;52.182;21.156;2022-09-27T10:53:51;15.50;97.90
16980;DHT22;42288;52.182;21.156;2022-09-27T10:56:33;15.50;98.10
16980;DHT22;42288;52.182;21.156;2022-09-27T10:59:00;15.60;97.60
16980;DHT22;42288;52.182;21.156;2022-09-27T11:01:41;15.50;97.70
16980;DHT22;42288;52.182;21.156;2022-09-27T11:04:19;15.60;97.20
16980;DHT22;42288;52.182;21.156;2022-09-27T11:06:45;15.80;97.10
16980;DHT22;42288;52.182;21.156;2022-09-27T11:09:18;15.70;96.80
16980;DHT22;42288;52.182;21.156;2022-09-27T11:11:44;15.90;97.20
16980;DHT22;42288;52.182;21.156;2022-09-27T11:14:20;15.60;96.50
16980;DHT22;42288;52.182;21.156;2022-09-27T11:22:47;15.90;97.00
16980;DHT22;42288;52.182;21.156;2022-09-27T11:28:43;15.60;96.50
16980;DHT22;42288;52.182;21.156;2022-09-27T11:31:23;15.70;96.70
16980;DHT22;42288;52.182;21.156;2022-09-27T11:34:06;15.40;96.40
16980;DHT22;42288;52.182;21.156;2022-09-27T11:42:15;15.80;96.30
16980;DHT22;42288;52.182;21.156;2022-09-27T11:48:32;15.40;96.50
16980;DHT22;42288;52.182;21.156;2022-09-27T11:51:25;15.50;96.70
16980;DHT22;42288;52.182;21.156;2022-09-27T11:59:35;15.20;97.50
16980;DHT22;42288;52.182;21.156;2022-09-27T12:04:58;15.10;97.70
16980;DHT22;42288;52.182;21.156;2022-09-27T12:07:41;15.50;97.30
16980;DHT22;42288;52.182;21.156;2022-09-27T12:10:13;15.50;97.20
16980;DHT22;42288;52.182;21.156;2022-09-27T12:12:42;15.60;96.90
16980;DHT22;42288;52.182;21.156;2022-09-27T12:15:16;15.80;97.10
16980;DHT22;42288;52.182;21.156;2022-09-27T12:17:45;16.00;96.60
16980;DHT22;42288;52.182;21.156;2022-09-27T12:20:30;15.90;96.30
16980;DHT22;42288;52.182;21.156;2022-09-27T12:23:21;16.10;96.40
16980;DHT22;42288;52.182;21.156;2022-09-27T12:25:51;16.10;96.10
16980;DHT22;42288;52.182;21.156;2022-09-27T12:28:30;16.40;95.60
16980;DHT22;42288;52.182;21.156;2022-09-27T12:31:04;16.70;96.00
16980;DHT22;42288;52.182;21.156;2022-09-27T12:34:10;16.80;94.90
16980;DHT22;42288;52.182;21.156;2022-09-27T12:36:36;16.80;94.40
16980;DHT22;42288;52.182;21.156;2022-09-27T12:41:41;16.80;94.20
16980;DHT22;42288;52.182;21.156;2022-09-27T12:44:10;16.80;94.00
16980;DHT22;42288;52.182;21.156;2022-09-27T12:49:32;16.50;94.70
16980;DHT22;42288;52.182;21.156;2022-09-27T12:52:09;16.60;94.50
16980;DHT22;42288;52.182;21.156;2022-09-27T13:00:19;16.70;94.20
16980;DHT22;42288;52.182;21.156;2022-09-27T13:03:04;17.00;93.90
16980;DHT22;42288;52.182;21.156;2022-09-27T13:05:58;17.20;93.70
16980;DHT22;42288;52.182;21.156;2022-09-27T13:11:46;17.30;93.40
16980;DHT22;42288;52.182;21.156;2022-09-27T13:14:23;17.50;93.00
16980;DHT22;42288;52.182;21.156;2022-09-27T13:16:50;17.20;92.60
16980;DHT22;42288;52.182;21.156;2022-09-27T13:19:38;17.30;92.90
16980;DHT22;42288;52.182;21.156;2022-09-27T13:22:09;17.40;92.70
16980;DHT22;42288;52.182;21.156;2022-09-27T13:35:38;17.50;92.50
16980;DHT22;42288;52.182;21.156;2022-09-27T13:38:21;17.40;91.80
16980;DHT22;42288;52.182;21.156;2022-09-27T13:40:47;17.10;92.10
16980;DHT22;42288;52.182;21.156;2022-09-27T13:46:25;16.90;92.20
16980;DHT22;42288;52.182;21.156;2022-09-27T13:48:56;17.00;92.20
16980;DHT22;42288;52.182;21.156;2022-09-27T13:51:39;17.00;91.80
16980;DHT22;42288;52.182;21.156;2022-09-27T13:57:01;16.40;92.40
16980;DHT22;42288;52.182;21.156;2022-09-27T13:59:41;16.40;93.10
16980;DHT22;42288;52.182;21.156;2022-09-27T14:02:12;16.50;93.10
16980;DHT22;42288;52.182;21.156;2022-09-27T14:04:46;16.70;93.00
16980;DHT22;42288;52.182;21.156;2022-09-27T14:07:28;16.80;92.50
16980;DHT22;42288;52.182;21.156;2022-09-27T14:09:57;17.00;92.60
16980;DHT22;42288;52.182;21.156;2022-09-27T14:12:30;17.20;92.60
16980;DHT22;42288;52.182;21.156;2022-09-27T14:14:58;17.20;92.10
16980;DHT22;42288;52.182;21.156;2022-09-27T14:17:24;17.20;91.80
16980;DHT22;42288;52.182;21.156;2022-09-27T14:19:51;17.10;91.70
16980;DHT22;42288;52.182;21.156;2022-09-27T14:22:20;16.90;92.00
16980;DHT22;42288;52.182;21.156;2022-09-27T14:24:48;16.90;92.20
16980;DHT22;42288;52.182;21.156;2022-09-27T14:27:26;16.80;92.20
16980;DHT22;42288;52.182;21.156;2022-09-27T14:29:54;16.70;92.40
16980;DHT22;42288;52.182;21.156;2022-09-27T14:32:29;16.70;92.40
16980;DHT22;42288;52.182;21.156;2022-09-27T14:35:09;16.60;92.90
16980;DHT22;42288;52.182;21.156;2022-09-27T14:38:01;16.70;93.00
16980;DHT22;42288;52.182;21.156;2022-09-27T14:40:27;16.70;92.90
16980;DHT22;42288;52.182;21.156;2022-09-27T14:42:59;16.50;92.70
16980;DHT22;42288;52.182;21.156;2022-09-27T14:45:36;16.30;93.10
16980;DHT22;42288;52.182;21.156;2022-09-27T14:48:21;16.20;93.30
16980;DHT22;42288;52.182;21.156;2022-09-27T14:53:26;16.50;93.50
16980;DHT22;42288;52.182;21.156;2022-09-27T14:55:51;16.50;93.40
16980;DHT22;42288;52.182;21.156;2022-09-27T14:58:20;16.50;93.30
16980;DHT22;42288;52.182;21.156;2022-09-27T15:00:47;16.60;93.30
16980;DHT22;42288;52.182;21.156;2022-09-27T15:03:28;16.60;93.50
16980;DHT22;42288;52.182;21.156;2022-09-27T15:05:56;16.60;93.60
16980;DHT22;42288;52.182;21.156;2022-09-27T15:08:25;16.50;93.20
16980;DHT22;42288;52.182;21.156;2022-09-27T15:10:51;16.50;93.60
16980;DHT22;42288;52.182;21.156;2022-09-27T15:13:19;16.40;93.50
16980;DHT22;42288;52.182;21.156;2022-09-27T15:15:46;16.40;93.70
16980;DHT22;42288;52.182;21.156;2022-09-27T15:18:33;16.50;93.70
16980;DHT22;42288;52.182;21.156;2022-09-27T15:21:06;16.60;93.50
16980;DHT22;42288;52.182;21.156;2022-09-27T15:23:38;16.50;93.40
16980;DHT22;42288;52.182;21.156;2022-09-27T15:26:23;16.50;93.70
16980;DHT22;42288;52.182;21.156;2022-09-27T15:28:50;16.60;93.80
16980;DHT22;42288;52.182;21.156;2022-09-27T15:31:26;16.50;93.60
16980;DHT22;42288;52.182;21.156;2022-09-27T15:33:54;16.60;93.80
16980;DHT22;42288;52.182;21.156;2022-09-27T15:36:50;16.60;93.20
16980;DHT22;42288;52.182;21.156;2022-09-27T15:39:28;16.50;93.30
16980;DHT22;42288;52.182;21.156;2022-09-27T15:42:10;16.30;93.20
16980;DHT22;42288;52.182;21.156;2022-09-27T15:52:51;16.50;93.10
16980;DHT22;42288;52.182;21.156;2022-09-27T15:55:24;16.40;93.10
16980;DHT22;42288;52.182;21.156;2022-09-27T15:57:53;16.30;93.40
16980;DHT22;42288;52.182;21.156;2022-09-27T16:00:19;16.30;93.50
16980;DHT22;42288;52.182;21.156;2022-09-27T16:02:45;16.20;93.50
16980;DHT22;42288;52.182;21.156;2022-09-27T16:05:12;16.20;93.60
16980;DHT22;42288;52.182;21.156;2022-09-27T16:07:37;16.20;93.60
16980;DHT22;42288;52.182;21.156;2022-09-27T16:12:39;16.30;93.60
16980;DHT22;42288;52.182;21.156;2022-09-27T16:15:05;16.10;93.50
16980;DHT22;42288;52.182;21.156;2022-09-27T16:17:30;16.10;93.80
16980;DHT22;42288;52.182;21.156;2022-09-27T16:19:57;16.20;93.50
16980;DHT22;42288;52.182;21.156;2022-09-27T16:22:22;16.10;93.40
16980;DHT22;42288;52.182;21.156;2022-09-27T16:24:48;15.90;93.60
16980;DHT22;42288;52.182;21.156;2022-09-27T16:27:25;15.70;93.90
16980;DHT22;42288;52.182;21.156;2022-09-27T16:29:54;15.60;94.20
16980;DHT22;42288;52.182;21.156;2022-09-27T16:32:22;15.50;94.50
16980;DHT22;42288;52.182;21.156;2022-09-27T16:34:47;15.50;94.70
16980;DHT22;42288;52.182;21.156;2022-09-27T16:37:13;15.50;94.80
16980;DHT22;42288;52.182;21.156;2022-09-27T16:39:39;15.50;94.80
16980;DHT22;42288;52.182;21.156;2022-09-27T16:42:05;15.40;94.80
16980;DHT22;42288;52.182;21.156;2022-09-27T16:44:32;15.40;94.90
16980;DHT22;42288;52.182;21.156;2022-09-27T16:47:01;15.50;94.80
16980;DHT22;42288;52.182;21.156;2022-09-27T16:49:26;15.60;94.80
16980;DHT22;42288;52.182;21.156;2022-09-27T16:52:10;15.50;94.70
16980;DHT22;42288;52.182;21.156;2022-09-27T16:54:36;15.50;94.70
16980;DHT22;42288;52.182;21.156;2022-09-27T16:57:01;15.60;94.70
16980;DHT22;42288;52.182;21.156;2022-09-27T16:59:27;15.60;94.60
16980;DHT22;42288;52.182;21.156;2022-09-27T17:01:53;15.70;94.60
16980;DHT22;42288;52.182;21.156;2022-09-27T17:04:22;15.70;94.60
16980;DHT22;42288;52.182;21.156;2022-09-27T17:06:48;15.60;94.50
16980;DHT22;42288;52.182;21.156;2022-09-27T17:09:13;15.60;94.60
16980;DHT22;42288;52.182;21.156;2022-09-27T17:11:39;15.50;94.60
16980;DHT22;42288;52.182;21.156;2022-09-27T17:14:04;15.30;94.90
16980;DHT22;42288;52.182;21.156;2022-09-27T17:16:30;15.20;95.00
16980;DHT22;42288;52.182;21.156;2022-09-27T17:18:55;15.20;95.10
16980;DHT22;42288;52.182;21.156;2022-09-27T17:21:21;15.10;95.30
16980;DHT22;42288;52.182;21.156;2022-09-27T17:23:47;15.00;95.50